Time;durP1;ratioP1;P1;durP2;ratioP2;P2;SDS_P1;SDS_P2;PMS_P1;PMS_P2;Temp;Humidity;BMP_temperature;BMP_pressure;BME280_temperature;BME280_humidity;BME280_pressure;Samples;Min_cycle;Max_cycle;Signal;HPM_P1;HPM_P2
2021/12/23 00:01:58;;;;;;;49.73;28.57;;;1.00;99.90;;;;;;5075459;28;20273;-72
2021/12/23 00:04:24;;;;;;;49.93;28.17;;;1.00;99.90;;;;;;5075562;28;20320;-72
2021/12/23 00:06:49;;;;;;;49.97;28.70;;;1.00;99.90;;;;;;5075603;28;20260;-72
2021/12/23 00:09:15;;;;;;;53.83;29.60;;;1.00;99.90;;;;;;5075385;28;20177;-71
2021/12/23 00:11:41;;;;;;;49.33;28.70;;;0.90;99.90;;;;;;5075285;28;20177;-71
2021/12/23 00:14:09;;;;;;;50.87;29.07;;;0.90;99.90;;;;;;5074924;28;20180;-72
2021/12/23 00:16:46;;;;;;;48.50;28.73;;;0.80;99.90;;;;;;5074541;28;20164;-72
2021/12/23 00:24:28;;;;;;;58.17;29.10;;;0.70;99.90;;;;;;5075144;28;20927;-72
2021/12/23 00:26:53;;;;;;;50.73;27.67;;;0.70;99.90;;;;;;5075243;28;20311;-72
2021/12/23 00:29:19;;;;;;;51.53;28.03;;;0.60;99.90;;;;;;5074686;28;20180;-71
2021/12/23 00:31:44;;;;;;;51.67;27.63;;;0.60;99.90;;;;;;5075053;28;20169;-71
2021/12/23 00:34:10;;;;;;;51.77;28.20;;;0.60;99.90;;;;;;5074887;28;20182;-73
2021/12/23 00:36:38;;;;;;;49.73;26.17;;;0.60;99.90;;;;;;5075027;28;20184;-72
2021/12/23 00:39:06;;;;;;;51.47;26.33;;;0.60;99.90;;;;;;5074747;28;20175;-72
2021/12/23 00:41:32;;;;;;;52.33;28.70;;;0.60;99.90;;;;;;5074713;28;20175;-71
2021/12/23 00:43:59;;;;;;;56.33;28.67;;;0.70;99.90;;;;;;5074919;28;20208;-71
2021/12/23 00:46:25;;;;;;;56.30;28.10;;;0.70;99.90;;;;;;5074763;28;20201;-72
2021/12/23 00:48:50;;;;;;;54.90;28.10;;;0.60;99.90;;;;;;5075021;28;20178;-72
2021/12/23 00:51:16;;;;;;;54.93;27.17;;;0.60;99.90;;;;;;5074872;28;20172;-72
2021/12/23 00:53:42;;;;;;;56.50;28.80;;;0.60;99.90;;;;;;5074485;28;20179;-72
2021/12/23 00:56:11;;;;;;;53.70;26.47;;;0.50;99.90;;;;;;5074154;28;20221;-71
2021/12/23 00:58:37;;;;;;;54.03;26.10;;;0.50;99.90;;;;;;5074377;28;20226;-72
2021/12/23 01:01:03;;;;;;;54.87;26.93;;;0.50;99.90;;;;;;5074504;28;20169;-72
2021/12/23 01:03:29;;;;;;;52.57;26.97;;;0.50;99.90;;;;;;5074338;28;20208;-72
2021/12/23 01:05:55;;;;;;;55.63;27.53;;;0.50;99.90;;;;;;5074429;28;20256;-72
2021/12/23 01:08:21;;;;;;;56.27;25.97;;;0.50;99.90;;;;;;5074329;28;20169;-73
2021/12/23 01:10:50;;;;;;;57.90;27.93;;;0.60;99.90;;;;;;5073817;28;20173;-72
2021/12/23 01:13:18;;;;;;;58.23;27.73;;;0.50;99.90;;;;;;5074272;28;20161;-73
2021/12/23 01:16:02;;;;;;;57.93;27.33;;;0.50;99.90;;;;;;5074054;28;20165;-72
2021/12/23 01:18:37;;;;;;;59.73;25.93;;;0.70;99.90;;;;;;5074135;28;20164;-71
2021/12/23 01:21:15;;;;;;;58.90;26.50;;;0.80;99.90;;;;;;5074095;28;20164;-72
2021/12/23 01:23:48;;;;;;;60.77;27.77;;;0.80;99.90;;;;;;5073865;28;20675;-71
2021/12/23 01:26:18;;;;;;;60.87;28.60;;;0.90;99.90;;;;;;5073259;28;20221;-72
2021/12/23 01:28:45;;;;;;;60.50;27.90;;;0.80;99.90;;;;;;5073060;28;20242;-72
2021/12/23 01:31:10;;;;;;;59.70;28.50;;;0.90;99.90;;;;;;5073959;28;20169;-71
2021/12/23 01:33:36;;;;;;;57.60;26.70;;;0.90;99.90;;;;;;5073883;28;20178;-72
2021/12/23 01:36:02;;;;;;;57.77;27.57;;;1.00;99.90;;;;;;5073602;28;20166;-71
2021/12/23 01:38:27;;;;;;;60.00;27.03;;;0.90;99.90;;;;;;5073730;28;20182;-72
2021/12/23 01:40:53;;;;;;;57.63;26.83;;;0.90;99.90;;;;;;5073261;28;20545;-72
2021/12/23 01:43:19;;;;;;;58.40;28.13;;;0.90;99.90;;;;;;5073542;28;20733;-72
2021/12/23 01:45:47;;;;;;;55.87;27.73;;;1.00;99.90;;;;;;5072361;28;20739;-71
2021/12/23 01:48:14;;;;;;;58.33;27.23;;;1.20;99.90;;;;;;5072388;28;20165;-71
2021/12/23 01:50:40;;;;;;;66.47;29.43;;;1.10;99.90;;;;;;5073537;28;20263;-71
2021/12/23 01:53:06;;;;;;;58.53;27.00;;;1.20;99.90;;;;;;5073400;28;20214;-72
2021/12/23 01:55:32;;;;;;;63.80;28.00;;;1.30;99.90;;;;;;5073024;28;20176;-71
2021/12/23 01:57:58;;;;;;;58.37;27.13;;;1.30;99.90;;;;;;5073606;28;20332;-72
2021/12/23 02:00:29;;;;;;;61.20;27.40;;;1.30;99.90;;;;;;5073474;28;20184;-72
2021/12/23 02:02:56;;;;;;;52.33;24.53;;;1.20;99.90;;;;;;5072080;28;20229;-71
2021/12/23 02:05:23;;;;;;;57.03;27.10;;;1.10;99.90;;;;;;5073574;28;20170;-71
2021/12/23 02:07:48;;;;;;;56.73;27.07;;;1.20;99.90;;;;;;5072960;28;20633;-71
2021/12/23 02:10:15;;;;;;;54.83;26.00;;;1.20;99.90;;;;;;5072885;28;20191;-71
2021/12/23 02:12:43;;;;;;;53.43;25.73;;;1.30;99.90;;;;;;5073098;28;20266;-71
2021/12/23 02:15:10;;;;;;;51.07;24.03;;;1.30;99.90;;;;;;5073460;28;20171;-71
2021/12/23 02:17:37;;;;;;;55.33;26.27;;;1.30;99.90;;;;;;5072006;28;20633;-71
2021/12/23 02:20:05;;;;;;;57.27;26.10;;;1.30;99.90;;;;;;5071887;28;20207;-71
2021/12/23 02:22:31;;;;;;;58.43;26.93;;;1.30;99.90;;;;;;5072867;28;20201;-71
2021/12/23 02:24:56;;;;;;;51.13;24.57;;;1.30;99.90;;;;;;5072369;28;20284;-72
2021/12/23 02:27:22;;;;;;;55.13;26.27;;;1.30;99.90;;;;;;5073303;28;20177;-71
2021/12/23 02:29:47;;;;;;;54.90;26.17;;;1.30;99.90;;;;;;5071763;28;20539;-72
2021/12/23 02:32:13;;;;;;;53.87;25.27;;;1.20;99.90;;;;;;5071575;28;20179;-71
2021/12/23 02:34:39;;;;;;;51.67;24.90;;;1.20;99.90;;;;;;5072937;28;20174;-71
2021/12/23 02:37:05;;;;;;;58.10;25.73;;;1.20;99.90;;;;;;5071645;28;20181;-71
2021/12/23 02:39:31;;;;;;;56.37;25.83;;;1.30;99.90;;;;;;5073033;28;20538;-71
2021/12/23 02:41:58;;;;;;;53.03;24.57;;;1.30;99.90;;;;;;5077183;28;20655;-71
2021/12/23 02:44:24;;;;;;;53.70;25.53;;;1.30;99.90;;;;;;5077012;28;20379;-71
2021/12/23 02:46:49;;;;;;;58.87;26.53;;;1.40;99.90;;;;;;5077055;28;20198;-71
2021/12/23 02:49:16;;;;;;;52.93;25.70;;;1.20;99.90;;;;;;5076969;28;20169;-71
2021/12/23 02:51:41;;;;;;;53.30;25.83;;;1.30;99.90;;;;;;5076856;28;20169;-71
2021/12/23 02:54:07;;;;;;;55.97;26.43;;;1.20;99.90;;;;;;5076595;28;20634;-72
2021/12/23 02:56:33;;;;;;;55.90;25.80;;;1.30;99.90;;;;;;5076829;28;20171;-71
2021/12/23 02:59:00;;;;;;;52.00;24.67;;;1.20;99.90;;;;;;5075631;28;20190;-71
2021/12/23 03:01:26;;;;;;;54.10;24.93;;;1.20;99.90;;;;;;5076615;28;20249;-71
2021/12/23 03:03:52;;;;;;;53.30;25.53;;;1.20;99.90;;;;;;5076482;28;20259;-71
2021/12/23 03:06:19;;;;;;;47.40;22.87;;;1.10;99.90;;;;;;5076662;28;20177;-71
2021/12/23 03:08:51;;;;;;;53.17;24.43;;;1.20;99.90;;;;;;5076496;28;20180;-72
2021/12/23 03:11:20;;;;;;;52.17;25.00;;;1.20;99.90;;;;;;5076592;28;20333;-72
2021/12/23 03:13:46;;;;;;;55.70;25.70;;;1.30;99.90;;;;;;5076445;28;20581;-72
2021/12/23 03:16:14;;;;;;;53.20;25.20;;;1.20;99.90;;;;;;5076516;28;20226;-72
2021/12/23 03:18:41;;;;;;;55.20;25.10;;;1.30;99.90;;;;;;5076411;28;20198;-72
2021/12/23 03:21:07;;;;;;;53.57;24.87;;;1.20;99.90;;;;;;5075976;28;20190;-72
2021/12/23 03:23:33;;;;;;;52.23;24.27;;;1.20;99.90;;;;;;5076323;28;20280;-72
2021/12/23 03:25:59;;;;;;;54.40;22.50;;;1.20;99.90;;;;;;5075825;28;20689;-72
2021/12/23 03:28:25;;;;;;;50.70;25.10;;;1.10;99.90;;;;;;5076164;28;20183;-72
2021/12/23 03:30:51;;;;;;;52.27;24.00;;;1.20;99.90;;;;;;5076035;28;20320;-72
2021/12/23 03:33:17;;;;;;;59.47;25.67;;;1.20;99.90;;;;;;5076066;28;20173;-72
2021/12/23 03:35:44;;;;;;;53.03;23.53;;;1.20;99.90;;;;;;5075737;28;20174;-71
2021/12/23 03:38:10;;;;;;;55.33;26.23;;;1.20;99.90;;;;;;5076049;28;20189;-72
2021/12/23 03:40:37;;;;;;;51.03;24.00;;;1.20;99.90;;;;;;5075788;28;20256;-72
2021/12/23 03:43:03;;;;;;;53.07;23.80;;;1.20;99.90;;;;;;5075464;28;20304;-72
2021/12/23 03:45:28;;;;;;;51.20;23.27;;;1.20;99.90;;;;;;5074725;28;20740;-72
2021/12/23 03:47:54;;;;;;;56.60;23.93;;;1.20;99.90;;;;;;5075854;28;20173;-72
2021/12/23 03:50:22;;;;;;;53.70;24.50;;;1.30;99.90;;;;;;5075324;28;20266;-72
2021/12/23 03:52:48;;;;;;;49.17;23.50;;;1.30;99.90;;;;;;5074634;28;20177;-72
2021/12/23 03:55:15;;;;;;;57.07;23.47;;;1.40;99.90;;;;;;5075887;28;20245;-72
2021/12/23 03:57:41;;;;;;;55.43;24.73;;;1.40;99.90;;;;;;5075515;28;20655;-72
2021/12/23 04:00:11;;;;;;;54.17;23.13;;;1.40;99.90;;;;;;5075625;28;20201;-72
2021/12/23 04:02:36;;;;;;;44.83;19.43;;;1.40;99.90;;;;;;5075171;28;20174;-72
2021/12/23 04:05:03;;;;;;;50.83;23.47;;;1.40;99.90;;;;;;5075183;28;20175;-73
2021/12/23 04:07:29;;;;;;;54.47;24.90;;;1.30;99.90;;;;;;5075527;28;20164;-72
2021/12/23 04:09:54;;;;;;;52.47;23.90;;;1.40;99.90;;;;;;5075425;28;20286;-71
2021/12/23 04:12:21;;;;;;;53.50;23.20;;;1.40;99.90;;;;;;5075797;28;20250;-70
2021/12/23 04:14:47;;;;;;;56.03;25.30;;;1.40;99.90;;;;;;5075556;28;20262;-72
2021/12/23 04:17:13;;;;;;;48.70;23.23;;;1.40;99.90;;;;;;5075196;28;20167;-71
2021/12/23 04:19:39;;;;;;;48.80;23.67;;;1.40;99.90;;;;;;5074865;28;20197;-71
2021/12/23 04:22:04;;;;;;;53.27;24.07;;;1.50;99.90;;;;;;5074978;28;20170;-71
2021/12/23 04:24:30;;;;;;;50.33;22.20;;;1.50;99.90;;;;;;5075083;28;20503;-70
2021/12/23 04:26:56;;;;;;;53.73;24.27;;;1.50;99.90;;;;;;5074848;28;20234;-71
2021/12/23 04:29:23;;;;;;;53.67;23.20;;;1.50;99.90;;;;;;5074965;28;20632;-71
2021/12/23 04:31:49;;;;;;;52.83;24.40;;;1.40;99.90;;;;;;5074900;28;20218;-71
2021/12/23 04:34:15;;;;;;;51.83;24.70;;;1.40;99.90;;;;;;5074194;28;20172;-71
2021/12/23 04:36:40;;;;;;;49.17;22.77;;;1.40;99.90;;;;;;5074889;28;20171;-72
2021/12/23 04:39:06;;;;;;;49.20;23.60;;;1.40;99.90;;;;;;5074915;28;20188;-72
2021/12/23 04:41:32;;;;;;;55.90;25.17;;;1.40;99.90;;;;;;5074233;28;20223;-72
2021/12/23 04:43:58;;;;;;;52.30;23.67;;;1.40;99.90;;;;;;5074484;28;20216;-72
2021/12/23 04:46:24;;;;;;;53.33;23.13;;;1.40;99.90;;;;;;5074340;28;20695;-72
2021/12/23 04:48:52;;;;;;;51.93;23.20;;;1.40;99.90;;;;;;5074272;28;20622;-72
2021/12/23 04:51:19;;;;;;;56.83;24.20;;;1.50;99.90;;;;;;5074415;28;20171;-70
2021/12/23 04:53:45;;;;;;;50.97;23.77;;;1.50;99.90;;;;;;5074227;28;20186;-71
2021/12/23 04:56:12;;;;;;;49.10;23.50;;;1.50;99.90;;;;;;5073012;28;20636;-71
2021/12/23 04:58:39;;;;;;;52.47;23.90;;;1.50;99.90;;;;;;5074066;28;20250;-72
2021/12/23 05:01:06;;;;;;;49.40;23.60;;;1.50;99.90;;;;;;5074242;28;20529;-72
2021/12/23 05:03:32;;;;;;;53.40;22.80;;;1.60;99.90;;;;;;5073486;28;20207;-71
2021/12/23 05:05:58;;;;;;;54.80;24.03;;;1.70;99.90;;;;;;5074201;28;20740;-71
2021/12/23 05:08:24;;;;;;;48.80;23.53;;;1.80;99.90;;;;;;5072619;28;20179;-71
2021/12/23 05:10:49;;;;;;;49.40;23.30;;;1.80;99.90;;;;;;5073613;28;20368;-72
2021/12/23 05:13:15;;;;;;;50.50;23.00;;;1.90;99.90;;;;;;5073972;28;20250;-72
2021/12/23 05:15:41;;;;;;;49.53;23.43;;;1.90;99.90;;;;;;5073856;28;20191;-71
2021/12/23 05:18:08;;;;;;;48.43;23.50;;;1.90;99.90;;;;;;5073533;28;20175;-72
2021/12/23 05:20:34;;;;;;;52.23;22.57;;;2.00;99.90;;;;;;5073459;28;20508;-71
2021/12/23 05:23:00;;;;;;;49.63;22.90;;;2.00;99.90;;;;;;5073280;28;20223;-73
2021/12/23 05:25:25;;;;;;;47.33;22.37;;;2.10;99.90;;;;;;5072060;28;20271;-72
2021/12/23 05:27:54;;;;;;;50.00;23.73;;;2.10;99.90;;;;;;5073833;28;20175;-71
2021/12/23 05:30:22;;;;;;;45.67;21.53;;;2.20;99.90;;;;;;5072097;28;20164;-71
2021/12/23 05:32:48;;;;;;;48.17;21.87;;;2.30;99.90;;;;;;5072964;28;20261;-72
2021/12/23 05:35:17;;;;;;;49.57;22.30;;;2.20;99.90;;;;;;5072323;28;20304;-72
2021/12/23 05:37:43;;;;;;;45.23;21.27;;;2.20;99.90;;;;;;5073120;28;20168;-70
2021/12/23 05:40:12;;;;;;;47.10;22.57;;;2.30;99.90;;;;;;5073511;28;20168;-72
2021/12/23 05:42:37;;;;;;;48.80;23.13;;;2.40;99.90;;;;;;5073075;28;20171;-72
2021/12/23 05:45:04;;;;;;;42.93;22.20;;;2.40;99.90;;;;;;5072027;28;20180;-71
2021/12/23 05:47:29;;;;;;;51.00;21.57;;;2.50;99.90;;;;;;5072768;28;20176;-71
2021/12/23 05:49:55;;;;;;;48.17;22.50;;;2.40;99.90;;;;;;5073080;28;20210;-71
2021/12/23 05:52:21;;;;;;;41.80;20.93;;;2.50;99.90;;;;;;5071081;28;20202;-72
2021/12/23 05:54:46;;;;;;;46.23;21.50;;;2.50;99.90;;;;;;5072894;28;20203;-71
2021/12/23 05:57:12;;;;;;;47.13;21.80;;;2.50;99.90;;;;;;5073233;28;20246;-70
2021/12/23 05:59:38;;;;;;;51.10;22.27;;;2.50;99.90;;;;;;5072719;28;20171;-71
2021/12/23 06:02:05;;;;;;;46.67;22.30;;;2.60;99.90;;;;;;5072413;28;20164;-72
2021/12/23 06:04:32;;;;;;;46.23;22.07;;;2.60;99.90;;;;;;5072722;28;20208;-70
2021/12/23 06:06:58;;;;;;;43.93;21.97;;;2.70;99.90;;;;;;5073187;28;20169;-71
2021/12/23 06:09:24;;;;;;;43.17;20.40;;;2.80;99.90;;;;;;5072907;28;20202;-72
2021/12/23 06:11:49;;;;;;;43.27;20.93;;;2.80;99.90;;;;;;5072300;28;20176;-72
2021/12/23 06:14:16;;;;;;;44.07;21.83;;;2.80;99.90;;;;;;5071706;28;20175;-71
2021/12/23 06:16:42;;;;;;;46.30;22.60;;;2.80;99.90;;;;;;5072218;28;20160;-72
2021/12/23 06:19:08;;;;;;;42.07;21.13;;;2.90;99.90;;;;;;5072310;28;20168;-71
2021/12/23 06:21:34;;;;;;;45.57;21.23;;;2.90;99.90;;;;;;5070701;28;20175;-74
2021/12/23 06:24:02;;;;;;;42.37;21.53;;;2.90;99.90;;;;;;5072393;28;20215;-71
2021/12/23 06:26:28;;;;;;;45.43;22.60;;;2.90;99.90;;;;;;5072176;28;20303;-72
2021/12/23 06:28:53;;;;;;;47.33;22.07;;;2.90;99.90;;;;;;5072100;28;20612;-72
2021/12/23 06:31:19;;;;;;;40.43;20.73;;;3.00;99.90;;;;;;5071601;28;20173;-72
2021/12/23 06:33:45;;;;;;;41.07;21.90;;;3.00;99.90;;;;;;5072162;28;20539;-71
2021/12/23 06:36:13;;;;;;;41.40;21.20;;;3.10;99.90;;;;;;5070810;28;20175;-71
2021/12/23 06:38:39;;;;;;;41.23;22.33;;;3.10;99.90;;;;;;5072475;28;20204;-71
2021/12/23 06:41:05;;;;;;;41.50;21.47;;;3.10;99.90;;;;;;5071859;28;20161;-71
2021/12/23 06:43:31;;;;;;;46.60;22.50;;;3.20;99.90;;;;;;5071656;28;20218;-72
2021/12/23 06:45:56;;;;;;;46.23;23.77;;;3.20;99.90;;;;;;5071457;28;20508;-71
2021/12/23 06:48:22;;;;;;;45.57;21.47;;;3.40;99.90;;;;;;5054215;28;20519;-72
2021/12/23 06:50:53;;;;;;;41.87;21.57;;;3.60;99.90;;;;;;5072034;28;20485;-72
2021/12/23 06:53:19;;;;;;;40.47;19.77;;;3.60;99.90;;;;;;5072595;28;20638;-72
2021/12/23 06:55:45;;;;;;;41.87;20.60;;;3.60;99.90;;;;;;5071481;28;20271;-72
2021/12/23 06:58:10;;;;;;;41.87;20.67;;;3.60;99.90;;;;;;5071820;28;20554;-71
2021/12/23 07:00:37;;;;;;;43.57;21.80;;;3.60;99.90;;;;;;5071345;28;20581;-72
2021/12/23 07:03:03;;;;;;;40.40;20.87;;;3.70;99.90;;;;;;5071289;28;20303;-71
2021/12/23 07:05:28;;;;;;;41.77;20.53;;;3.70;99.90;;;;;;5071602;28;20671;-71
2021/12/23 07:08:05;;;;;;;37.67;19.83;;;3.80;99.90;;;;;;5071731;28;20326;-71
2021/12/23 07:10:32;;;;;;;40.73;21.00;;;3.70;99.90;;;;;;5071469;28;20183;-71
2021/12/23 07:12:59;;;;;;;41.57;21.20;;;3.70;99.90;;;;;;5071197;28;20172;-72
2021/12/23 07:15:26;;;;;;;38.03;19.73;;;3.70;99.90;;;;;;5071998;28;20171;-71
2021/12/23 07:17:53;;;;;;;39.63;20.53;;;3.80;99.90;;;;;;5071349;28;20196;-71
2021/12/23 07:20:19;;;;;;;44.13;19.77;;;3.80;99.90;;;;;;5071372;28;20211;-71
2021/12/23 07:22:46;;;;;;;38.43;20.30;;;3.80;99.90;;;;;;5071554;28;20626;-72
2021/12/23 07:25:15;;;;;;;38.27;20.83;;;3.90;99.90;;;;;;5071256;28;20664;-71
2021/12/23 07:27:42;;;;;;;39.07;19.20;;;4.00;99.90;;;;;;5074362;28;20164;-71
2021/12/23 07:30:09;;;;;;;40.83;20.33;;;4.10;99.90;;;;;;5074665;28;20234;-70
2021/12/23 07:32:35;;;;;;;38.57;20.03;;;4.20;99.90;;;;;;5074971;28;20200;-71
2021/12/23 07:35:01;;;;;;;37.00;20.37;;;4.20;99.90;;;;;;5074609;28;20164;-72
2021/12/23 07:37:26;;;;;;;35.07;19.90;;;4.20;99.90;;;;;;5075315;28;20191;-71
2021/12/23 07:39:54;;;;;;;40.13;20.17;;;4.20;99.90;;;;;;5075034;28;20176;-71
2021/12/23 07:42:20;;;;;;;36.97;19.10;;;4.30;99.90;;;;;;5074274;28;20157;-71
2021/12/23 07:44:46;;;;;;;37.83;20.23;;;4.40;99.90;;;;;;5073673;28;20278;-72
2021/12/23 07:47:14;;;;;;;39.93;20.67;;;4.50;99.90;;;;;;5074838;28;20195;-71
2021/12/23 07:49:41;;;;;;;40.03;20.30;;;4.40;99.90;;;;;;5074930;28;20223;-72
2021/12/23 07:52:07;;;;;;;39.27;20.13;;;4.40;99.90;;;;;;5074869;28;20194;-72
2021/12/23 07:54:35;;;;;;;35.80;20.00;;;4.50;99.90;;;;;;5072230;28;20341;-73
2021/12/23 07:57:04;;;;;;;36.77;19.07;;;4.50;99.90;;;;;;5074428;28;20171;-71
2021/12/23 07:59:29;;;;;;;36.80;19.43;;;4.50;99.90;;;;;;5074600;28;20188;-72
2021/12/23 08:01:58;;;;;;;31.50;19.07;;;4.60;99.90;;;;;;5074415;28;20188;-70
2021/12/23 08:04:25;;;;;;;35.30;19.67;;;4.60;99.90;;;;;;5074738;28;20667;-71
2021/12/23 08:06:55;;;;;;;34.57;19.63;;;4.60;99.90;;;;;;5073583;28;20267;-72
2021/12/23 08:09:24;;;;;;;35.57;19.50;;;4.60;99.90;;;;;;5074455;28;20173;-70
2021/12/23 08:11:51;;;;;;;36.67;19.23;;;4.70;99.90;;;;;;5074269;28;20534;-72
2021/12/23 08:14:16;;;;;;;39.13;19.27;;;4.70;99.90;;;;;;5074540;28;20167;-71
2021/12/23 08:16:43;;;;;;;35.93;19.10;;;4.70;99.90;;;;;;5068225;28;20177;-71
2021/12/23 08:19:09;;;;;;;35.10;18.80;;;4.80;99.90;;;;;;5070440;28;20181;-69
2021/12/23 08:21:35;;;;;;;33.80;19.13;;;4.70;99.90;;;;;;5073144;28;20636;-69
2021/12/23 08:24:01;;;;;;;35.23;19.00;;;4.80;99.90;;;;;;5071171;28;20295;-69
2021/12/23 08:26:30;;;;;;;37.60;18.70;;;4.80;99.90;;;;;;5072654;28;20243;-69
2021/12/23 08:28:57;;;;;;;32.17;18.43;;;4.80;99.90;;;;;;5074262;28;20620;-69
2021/12/23 08:31:24;;;;;;;35.03;18.63;;;4.90;99.90;;;;;;5073274;28;20255;-69
2021/12/23 08:33:50;;;;;;;32.53;18.30;;;4.90;99.90;;;;;;5073559;28;20179;-70
2021/12/23 08:36:16;;;;;;;32.20;18.80;;;4.90;99.90;;;;;;5072261;28;20180;-69
2021/12/23 08:38:42;;;;;;;30.97;17.40;;;4.80;99.90;;;;;;5072941;28;20169;-70
2021/12/23 08:41:10;;;;;;;32.20;17.70;;;4.80;99.90;;;;;;5072782;28;20180;-68
2021/12/23 08:43:36;;;;;;;32.63;17.97;;;4.90;99.90;;;;;;5073574;28;20690;-69
2021/12/23 08:46:03;;;;;;;33.70;16.60;;;5.00;99.90;;;;;;5073560;28;20175;-69
2021/12/23 08:48:29;;;;;;;31.40;16.37;;;5.00;99.90;;;;;;5072446;28;20231;-68
2021/12/23 08:50:55;;;;;;;33.93;18.57;;;5.00;99.90;;;;;;5073195;28;20176;-68
2021/12/23 08:53:21;;;;;;;37.43;18.70;;;5.10;99.90;;;;;;5072793;28;20169;-68
2021/12/23 08:55:47;;;;;;;31.33;17.63;;;5.10;99.90;;;;;;5072584;28;20652;-68
2021/12/23 08:58:13;;;;;;;35.87;18.23;;;5.10;99.90;;;;;;5072894;28;20204;-68
2021/12/23 09:00:40;;;;;;;36.90;18.27;;;5.30;99.90;;;;;;5073167;28;20176;-69
2021/12/23 09:03:07;;;;;;;31.47;17.67;;;5.30;99.90;;;;;;5073012;28;20188;-69
2021/12/23 09:05:38;;;;;;;30.27;17.70;;;5.50;99.90;;;;;;5073424;28;20234;-68
2021/12/23 09:08:05;;;;;;;30.43;17.47;;;5.50;99.90;;;;;;5071829;28;20274;-69
2021/12/23 09:10:32;;;;;;;31.77;18.13;;;5.50;99.90;;;;;;5071826;28;20220;-68
2021/12/23 09:12:57;;;;;;;32.80;17.47;;;5.60;99.90;;;;;;5071606;28;20173;-69
2021/12/23 09:15:24;;;;;;;33.63;18.10;;;5.70;99.90;;;;;;5073430;28;20617;-69
2021/12/23 09:17:52;;;;;;;32.57;18.57;;;5.80;99.90;;;;;;5073057;28;20173;-69
2021/12/23 09:20:20;;;;;;;32.63;17.30;;;5.80;99.90;;;;;;5072681;28;20255;-70
2021/12/23 09:22:47;;;;;;;33.13;18.73;;;5.90;99.90;;;;;;5072205;28;20270;-69
2021/12/23 09:25:22;;;;;;;31.23;18.13;;;6.00;99.90;;;;;;5072201;28;20226;-71
2021/12/23 09:33:05;;;;;;;33.53;18.23;;;6.00;99.90;;;;;;5058182;28;20183;-69
2021/12/23 09:35:32;;;;;;;30.80;18.23;;;5.90;99.90;;;;;;5071281;28;20168;-68
2021/12/23 09:38:02;;;;;;;31.83;18.40;;;5.90;99.90;;;;;;5072366;28;20318;-69
2021/12/23 09:40:33;;;;;;;31.60;18.13;;;6.00;99.90;;;;;;5070527;28;20169;-68
2021/12/23 09:43:06;;;;;;;31.67;19.03;;;6.00;99.90;;;;;;5072447;28;20157;-69
2021/12/23 09:45:33;;;;;;;32.50;17.70;;;6.00;99.90;;;;;;5072302;28;20529;-69
2021/12/23 09:48:01;;;;;;;28.80;17.57;;;6.00;99.90;;;;;;5072204;28;20168;-69
2021/12/23 09:50:30;;;;;;;37.30;18.27;;;6.00;99.90;;;;;;5070181;28;20176;-69
2021/12/23 09:52:56;;;;;;;33.57;18.23;;;6.00;99.90;;;;;;5071441;28;20239;-69
2021/12/23 09:55:25;;;;;;;33.87;19.47;;;6.00;99.90;;;;;;5072296;28;20912;-69
2021/12/23 09:57:53;;;;;;;33.70;18.27;;;6.00;99.90;;;;;;5071886;28;20218;-70
2021/12/23 10:00:22;;;;;;;37.57;19.23;;;6.10;99.90;;;;;;5072522;28;20173;-68
2021/12/23 10:02:48;;;;;;;34.73;18.27;;;6.20;99.90;;;;;;5071471;28;20172;-68
2021/12/23 10:05:20;;;;;;;35.87;19.13;;;6.10;99.90;;;;;;5071671;28;20196;-68
2021/12/23 10:07:47;;;;;;;33.17;18.50;;;6.10;99.90;;;;;;5071835;28;20172;-68
2021/12/23 10:10:20;;;;;;;32.87;18.80;;;6.00;99.90;;;;;;5071818;28;20177;-68
2021/12/23 10:31:49;;;;;;;32.03;19.83;;;6.10;99.90;;;;;;5071942;28;20527;-68
2021/12/23 10:39:43;;;;;;;41.50;21.07;;;6.00;99.90;;;;;;5072005;28;20176;-68
2021/12/23 10:42:15;;;;;;;33.07;20.67;;;6.00;99.90;;;;;;5071361;28;20644;-69
2021/12/23 10:44:54;;;;;;;39.70;21.93;;;6.00;99.90;;;;;;5071583;28;20209;-68
2021/12/23 10:47:39;;;;;;;37.27;21.83;;;6.00;99.90;;;;;;5071279;28;20628;-69
2021/12/23 10:50:32;;;;;;;32.40;18.83;;;6.00;99.90;;;;;;5071126;28;20203;-68
2021/12/23 10:53:09;;;;;;;39.43;21.67;;;6.00;99.90;;;;;;5055859;28;20619;-69
2021/12/23 10:58:27;;;;;;;50.57;28.57;;;6.20;99.90;;;;;;5071507;28;20559;-67
2021/12/23 11:01:00;;;;;;;67.27;36.83;;;6.20;99.90;;;;;;5055967;28;20183;-68
2021/12/23 11:03:35;;;;;;;55.43;32.10;;;6.20;99.90;;;;;;5074998;28;20664;-68
2021/12/23 11:06:15;;;;;;;45.67;25.10;;;6.30;99.90;;;;;;5075136;28;20259;-68
2021/12/23 11:08:54;;;;;;;42.97;24.90;;;6.20;99.90;;;;;;5074817;28;20172;-68
2021/12/23 11:31:58;;;;;;;33.13;21.73;;;6.80;99.90;;;;;;5074626;28;20208;-69
2021/12/23 11:39:08;;;;;;;33.83;20.80;;;7.10;99.90;;;;;;4973267;28;20172;-68
2021/12/23 11:41:38;;;;;;;39.00;22.03;;;7.20;99.90;;;;;;4973555;28;20214;-68
2021/12/23 11:44:09;;;;;;;35.23;21.70;;;7.10;99.90;;;;;;4973026;28;20254;-69
2021/12/23 11:46:45;;;;;;;31.83;20.77;;;7.20;99.90;;;;;;4973398;28;20318;-69
2021/12/23 11:49:13;;;;;;;31.97;20.50;;;7.10;99.90;;;;;;4972815;28;20279;-69
2021/12/23 11:54:14;;;;;;;36.20;21.43;;;7.50;99.90;;;;;;4973384;28;20214;-69
2021/12/23 11:57:10;;;;;;;34.37;20.60;;;7.80;99.90;;;;;;4971776;28;20293;-68
2021/12/23 11:59:39;;;;;;;35.03;21.00;;;7.60;99.90;;;;;;4971673;28;20198;-68
2021/12/23 12:02:21;;;;;;;33.77;21.70;;;7.60;99.90;;;;;;4973846;28;20188;-68
2021/12/23 12:04:57;;;;;;;33.70;20.83;;;7.50;99.90;;;;;;4972934;28;20220;-67
2021/12/23 12:07:24;;;;;;;35.30;22.40;;;7.40;99.90;;;;;;4973577;28;20192;-67
2021/12/23 12:10:04;;;;;;;35.87;22.47;;;7.40;99.90;;;;;;4971876;28;20215;-68
2021/12/23 12:12:31;;;;;;;35.53;23.13;;;7.30;99.90;;;;;;5002322;28;20203;-68
2021/12/23 12:14:58;;;;;;;38.23;22.20;;;7.00;99.90;;;;;;5054312;28;20180;-67
2021/12/23 12:17:27;;;;;;;35.10;22.50;;;6.80;99.90;;;;;;5054191;28;20265;-67
2021/12/23 12:20:13;;;;;;;38.10;21.67;;;6.70;99.90;;;;;;5053822;28;20263;-69
2021/12/23 12:22:53;;;;;;;41.37;23.47;;;6.90;99.90;;;;;;5053781;28;20251;-69
2021/12/23 12:25:25;;;;;;;38.70;22.30;;;6.90;99.90;;;;;;5053842;28;20288;-68
2021/12/23 12:27:56;;;;;;;37.63;23.53;;;6.90;99.90;;;;;;5054406;28;20169;-68
2021/12/23 12:30:39;;;;;;;37.30;21.03;;;6.90;99.90;;;;;;5053771;28;20260;-68
2021/12/23 12:33:23;;;;;;;33.30;20.90;;;6.90;99.90;;;;;;5053540;28;20178;-68
2021/12/23 12:36:05;;;;;;;37.27;21.60;;;6.80;99.90;;;;;;5054123;28;20174;-69
2021/12/23 12:39:04;;;;;;;38.13;22.80;;;6.80;99.90;;;;;;5053494;28;20202;-68
2021/12/23 12:41:33;;;;;;;35.47;21.37;;;6.70;99.90;;;;;;5032051;28;20197;-68
2021/12/23 12:44:36;;;;;;;42.23;22.83;;;6.80;99.90;;;;;;5031819;28;20253;-69
2021/12/23 12:47:16;;;;;;;37.33;21.80;;;6.90;99.90;;;;;;5030894;28;20645;-70
2021/12/23 12:49:49;;;;;;;35.97;22.37;;;7.00;99.90;;;;;;5032048;28;20248;-69
2021/12/23 12:52:29;;;;;;;37.10;20.40;;;7.10;99.90;;;;;;5031113;28;20174;-69
2021/12/23 12:55:03;;;;;;;38.77;22.77;;;7.30;99.90;;;;;;5031311;28;20201;-69
2021/12/23 12:57:45;;;;;;;35.30;20.63;;;7.30;99.90;;;;;;5031883;28;20220;-68
2021/12/23 13:00:35;;;;;;;37.27;20.83;;;7.20;99.90;;;;;;5031085;28;20212;-69
2021/12/23 13:03:08;;;;;;;37.30;22.20;;;7.00;99.90;;;;;;5030967;28;20185;-70
2021/12/23 13:05:40;;;;;;;41.83;22.83;;;7.10;99.90;;;;;;5031439;28;20182;-69
2021/12/23 13:08:24;;;;;;;41.13;22.63;;;7.00;99.90;;;;;;5031687;28;20213;-68
2021/12/23 13:10:50;;;;;;;40.97;23.03;;;7.00;99.90;;;;;;5031240;28;20676;-68
2021/12/23 13:13:33;;;;;;;40.67;23.80;;;7.00;99.90;;;;;;5031141;28;20245;-68
2021/12/23 13:16:00;;;;;;;40.97;21.83;;;7.00;99.90;;;;;;5031111;28;20173;-69
2021/12/23 13:18:26;;;;;;;40.20;23.37;;;7.00;99.90;;;;;;5043448;28;20246;-69
2021/12/23 13:21:05;;;;;;;36.67;21.23;;;6.90;99.90;;;;;;5052674;28;20197;-69
2021/12/23 13:23:36;;;;;;;34.40;20.60;;;6.70;99.90;;;;;;5053367;28;20207;-69
2021/12/23 13:26:19;;;;;;;38.90;21.53;;;6.60;99.90;;;;;;5052879;28;20307;-69
2021/12/23 13:28:53;;;;;;;41.77;22.30;;;6.60;99.90;;;;;;5051445;28;20235;-69
2021/12/23 13:31:19;;;;;;;36.33;21.67;;;6.60;99.90;;;;;;5052607;28;20173;-68
2021/12/23 13:33:53;;;;;;;37.53;20.70;;;6.60;99.90;;;;;;5052896;28;20175;-69
2021/12/23 13:36:41;;;;;;;38.47;19.43;;;6.70;99.90;;;;;;5052629;28;20641;-69
2021/12/23 13:39:14;;;;;;;39.70;21.50;;;6.50;99.90;;;;;;5052814;28;20255;-69
2021/12/23 13:41:41;;;;;;;39.03;21.87;;;6.40;99.90;;;;;;5053232;28;20173;-69
2021/12/23 13:44:15;;;;;;;44.13;22.63;;;6.30;99.90;;;;;;5052941;28;20233;-70
2021/12/23 13:47:03;;;;;;;44.07;22.53;;;6.40;99.90;;;;;;5052302;28;20176;-70
2021/12/23 13:49:31;;;;;;;44.20;26.00;;;6.40;99.90;;;;;;5051861;28;20177;-68